Weather at Biddeford Municipal Airport

Public forecast

Using degrees Fahrenheit for public forecast. Weather courtesy of forecast.io.

Closest aviation weather report (METAR) to Biddeford Municipal Airport

Closest report is Sanford Seacoast Regional Airport, 11.1 nm (20.6 km) WSW. Retrieved 2020/10/25 06:56 UTC (42 minutes ago):

KSFM 250656Z AUTO 00000KT 10SM CLR M02/M02 A3010 RMK AO2 SLP195 T10171022 FZRANO

Closest aviation forecast (TAF) to Biddeford Municipal Airport

Closest forecast is Portland International Jetport, 13.0 nm (24.1 km) NNE. Retrieved 2020/10/25 06:30 UTC (1 hour ago):

TAF KPWM 250529Z 2506/2606 35007KT P6SM FEW050 FM251800 06007KT P6SM FEW250 FM252000 12007KT P6SM FEW250 FM260500 VRB04KT P6SM BKN080